Time;durP1;ratioP1;P1;durP2;ratioP2;P2;SDS_P1;SDS_P2;PMS_P1;PMS_P2;Temp;Humidity;BMP_temperature;BMP_pressure;BME280_temperature;BME280_humidity;BME280_pressure;Samples;Min_cycle;Max_cycle;Signal;HPM_P1;HPM_P2
2024/01/26 00:00:43;;;;;;;8.23;5.87;;;6.80;99.90;;;7.54;100.00;98965.84;10371639;28;20725;-67
2024/01/26 00:05:46;;;;;;;7.60;5.63;;;6.80;99.90;;;7.45;100.00;98959.97;10388038;28;20244;-65
2024/01/26 00:10:49;;;;;;;13.57;6.40;;;6.70;99.90;;;7.44;100.00;98950.56;10388491;28;20367;-66
2024/01/26 00:15:54;;;;;;;9.77;5.33;;;6.70;99.90;;;7.33;100.00;98953.84;10389896;28;20234;-66
2024/01/26 00:20:57;;;;;;;7.40;5.33;;;6.60;99.90;;;7.23;100.00;98944.47;10370480;28;20221;-65
2024/01/26 00:26:00;;;;;;;11.90;6.37;;;6.60;99.90;;;7.28;100.00;98950.00;10391008;28;20233;-67
2024/01/26 00:31:05;;;;;;;7.97;5.20;;;6.70;99.90;;;7.28;100.00;98955.06;10393834;28;20236;-66
2024/01/26 00:36:09;;;;;;;7.17;4.50;;;6.70;99.90;;;7.38;100.00;98952.56;10390477;28;20316;-66
2024/01/26 00:41:12;;;;;;;4.20;3.80;;;6.70;99.90;;;7.47;100.00;98953.38;10386897;28;20229;-67
2024/01/26 00:46:16;;;;;;;7.10;4.90;;;6.70;99.90;;;7.25;100.00;98949.72;10385753;28;20241;-66
2024/01/26 00:51:19;;;;;;;7.10;5.23;;;6.60;99.90;;;7.18;100.00;98951.72;10390573;28;20237;-66
2024/01/26 00:56:22;;;;;;;7.00;4.60;;;6.50;99.90;;;7.16;100.00;98955.78;10389917;28;21135;-66
2024/01/26 01:01:27;;;;;;;6.97;5.37;;;6.50;99.90;;;7.18;100.00;98950.81;10405044;22;20410;-61
2024/01/26 01:06:30;;;;;;;7.33;5.60;;;6.50;99.90;;;7.25;100.00;98954.81;10425476;28;20228;-61
2024/01/26 01:11:33;;;;;;;8.20;5.30;;;6.60;99.90;;;7.45;100.00;98942.16;10418816;28;20832;-61
2024/01/26 01:16:39;;;;;;;8.17;6.50;;;6.70;99.90;;;7.37;100.00;98966.94;10378199;28;20226;-59
2024/01/26 01:21:42;;;;;;;8.33;5.43;;;6.60;99.90;;;7.32;100.00;98970.72;10381182;28;20230;-61
2024/01/26 01:26:45;;;;;;;6.60;5.07;;;6.60;99.90;;;7.35;100.00;98980.25;10357335;28;20603;-61
2024/01/26 01:31:50;;;;;;;6.87;5.23;;;6.70;99.90;;;7.38;100.00;98976.38;10369158;28;20268;-61
2024/01/26 01:36:53;;;;;;;8.10;5.10;;;6.70;99.90;;;7.42;100.00;98985.16;10381094;28;20346;-60
2024/01/26 01:41:56;;;;;;;8.50;5.23;;;6.70;99.90;;;7.45;100.00;98975.22;10380736;28;20249;-61
2024/01/26 01:47:01;;;;;;;5.33;4.40;;;6.70;99.90;;;7.40;100.00;98986.66;10379717;28;20308;-61
2024/01/26 01:52:08;;;;;;;5.83;4.00;;;6.70;99.90;;;7.40;100.00;98979.91;10382345;28;20237;-62
2024/01/26 01:57:13;;;;;;;6.03;4.03;;;6.70;99.90;;;7.48;100.00;98972.97;10385347;28;20233;-62
2024/01/26 02:02:18;;;;;;;5.70;4.93;;;6.80;99.90;;;7.53;100.00;98971.72;10384792;28;20583;-62
2024/01/26 02:07:21;;;;;;;8.37;4.87;;;6.90;99.90;;;7.61;100.00;98968.19;10386880;28;20949;-61
2024/01/26 02:12:25;;;;;;;7.03;5.00;;;6.90;99.90;;;7.59;100.00;98961.16;10384606;28;20230;-61
2024/01/26 02:17:33;;;;;;;6.97;5.17;;;6.90;99.90;;;7.57;100.00;98966.13;10384405;28;20225;-61
2024/01/26 02:22:37;;;;;;;4.83;4.33;;;6.90;99.90;;;7.57;100.00;98958.47;10377872;28;20317;-61
2024/01/26 02:27:41;;;;;;;5.50;5.00;;;6.90;99.90;;;7.54;100.00;98958.22;10341358;28;20594;-61
2024/01/26 02:32:44;;;;;;;8.30;6.47;;;6.90;99.90;;;7.57;100.00;98958.47;10341505;28;20234;-61
2024/01/26 02:37:47;;;;;;;7.63;6.27;;;6.90;99.90;;;7.60;100.00;98958.75;10343614;28;20242;-60
2024/01/26 02:42:52;;;;;;;8.33;7.00;;;6.90;99.90;;;7.64;100.00;98964.97;10341152;28;20226;-61
2024/01/26 02:47:56;;;;;;;5.27;4.73;;;7.00;99.90;;;7.74;100.00;98967.56;10339947;28;20261;-61
2024/01/26 02:52:59;;;;;;;5.30;4.53;;;7.00;99.90;;;7.62;100.00;98977.59;10342214;28;20238;-59
2024/01/26 02:58:04;;;;;;;4.90;4.40;;;6.90;99.90;;;7.57;100.00;98971.19;10343412;28;20769;-60
2024/01/26 03:03:08;;;;;;;5.43;4.93;;;6.90;99.90;;;7.59;100.00;98967.16;10344399;28;20234;-62
2024/01/26 03:08:11;;;;;;;5.77;5.17;;;6.90;99.90;;;7.65;100.00;98972.75;10340220;28;20239;-62
2024/01/26 03:13:17;;;;;;;7.80;5.90;;;7.00;99.90;;;7.67;100.00;98968.69;10344752;28;20267;-61
2024/01/26 03:18:21;;;;;;;6.00;5.20;;;7.00;99.90;;;7.78;100.00;98968.72;10342580;28;20312;-61
2024/01/26 03:23:24;;;;;;;5.50;4.83;;;7.10;99.90;;;7.77;100.00;98964.41;10343814;28;20238;-62
2024/01/26 03:28:29;;;;;;;5.57;5.03;;;7.10;99.90;;;7.73;100.00;98959.81;10345291;28;20233;-61
2024/01/26 03:33:32;;;;;;;5.20;4.70;;;7.00;99.90;;;7.67;100.00;98961.06;10340907;28;20222;-61
2024/01/26 03:38:36;;;;;;;5.33;4.83;;;7.00;99.90;;;7.72;100.00;98963.09;10341202;28;20272;-61
2024/01/26 03:43:40;;;;;;;5.00;4.63;;;7.10;99.90;;;7.70;100.00;98960.44;10341351;28;20233;-61
2024/01/26 03:48:44;;;;;;;5.80;5.20;;;7.00;99.90;;;7.73;100.00;98959.81;10339513;28;22289;-60
2024/01/26 03:53:47;;;;;;;4.70;4.30;;;7.00;99.90;;;7.81;100.00;98969.91;10341515;28;20966;-61
2024/01/26 03:58:53;;;;;;;4.23;3.77;;;7.10;99.90;;;7.96;100.00;98962.66;10343175;28;20590;-60
2024/01/26 04:03:56;;;;;;;3.10;2.80;;;7.20;99.90;;;8.04;100.00;98963.28;10342614;28;20242;-61
2024/01/26 04:08:59;;;;;;;3.60;3.07;;;7.30;99.90;;;8.11;100.00;98963.94;10340136;28;20752;-61
2024/01/26 04:14:04;;;;;;;3.67;3.30;;;7.40;99.90;;;8.15;100.00;98966.75;10341608;28;20733;-61
2024/01/26 04:19:07;;;;;;;4.03;3.20;;;7.40;99.90;;;8.28;100.00;98979.75;10366855;28;20639;-59
2024/01/26 04:24:11;;;;;;;3.70;3.43;;;7.50;99.90;;;8.32;100.00;98976.69;10379740;28;20240;-63
2024/01/26 04:29:15;;;;;;;3.17;2.97;;;7.60;99.90;;;8.45;100.00;98974.47;10383043;28;20328;-61
2024/01/26 04:34:19;;;;;;;3.23;2.93;;;7.70;99.90;;;8.47;100.00;98972.94;10376551;28;20230;-61
2024/01/26 04:39:22;;;;;;;3.17;2.97;;;7.70;99.90;;;8.49;100.00;98985.78;10375344;28;20229;-60
2024/01/26 04:44:26;;;;;;;3.50;3.20;;;7.80;99.90;;;8.46;100.00;98982.97;10374076;28;20334;-59
2024/01/26 04:49:30;;;;;;;3.03;2.73;;;7.80;99.90;;;8.45;100.00;98971.91;10364080;28;20229;-61
2024/01/26 04:54:33;;;;;;;3.20;2.90;;;7.80;99.90;;;8.52;100.00;98966.53;10345433;28;20258;-61
2024/01/26 04:59:38;;;;;;;3.25;2.92;;;7.80;99.90;;;8.52;100.00;98966.53;10344791;28;20230;-60
2024/01/26 05:04:41;;;;;;;2.90;2.70;;;7.90;99.90;;;8.54;100.00;98969.22;10343998;28;20323;-61
2024/01/26 05:09:44;;;;;;;3.00;2.80;;;7.90;99.90;;;8.63;100.00;98969.09;10349373;28;20238;-62
2024/01/26 05:14:52;;;;;;;2.40;2.20;;;7.90;99.90;;;8.73;100.00;98964.00;10346996;28;20901;-61
2024/01/26 05:19:55;;;;;;;2.65;2.40;;;8.00;99.90;;;8.79;100.00;98957.75;10344975;28;20234;-62
2024/01/26 05:24:58;;;;;;;1.73;1.63;;;8.10;99.90;;;8.87;100.00;98950.72;10346010;28;20237;-62
2024/01/26 05:30:03;;;;;;;2.35;1.80;;;8.20;99.90;;;8.89;100.00;98944.06;10356662;28;20229;-62
2024/01/26 05:35:07;;;;;;;2.05;1.95;;;8.20;99.90;;;8.94;100.00;98950.44;10390688;28;20229;-62
2024/01/26 05:40:12;;;;;;;4.15;3.30;;;8.20;99.90;;;9.09;100.00;98967.75;10398634;28;20611;-61
2024/01/26 05:45:16;;;;;;;3.60;3.30;;;8.30;99.90;;;8.89;100.00;98973.78;10397707;28;20237;-62
2024/01/26 05:50:21;;;;;;;4.15;3.78;;;8.20;99.90;;;8.82;100.00;98952.00;10395312;28;20727;-62
2024/01/26 05:55:24;;;;;;;3.83;3.53;;;8.10;99.90;;;8.77;100.00;98945.63;10391308;28;20309;-60
2024/01/26 06:00:29;;;;;;;4.00;3.70;;;8.10;99.90;;;8.68;100.00;98952.53;10390525;28;21214;-61
2024/01/26 06:05:32;;;;;;;5.18;4.57;;;8.10;99.90;;;8.59;100.00;98942.47;10387346;28;20232;-61
2024/01/26 06:10:36;;;;;;;10.55;9.55;;;8.00;99.90;;;8.51;100.00;98951.13;10373806;28;21729;-64
2024/01/26 06:15:41;;;;;;;4.93;4.43;;;8.00;99.90;;;8.61;100.00;98942.59;10377639;28;20221;-64
2024/01/26 06:20:44;;;;;;;3.03;2.83;;;8.00;99.90;;;8.71;100.00;98947.69;10390870;28;20225;-64
2024/01/26 06:25:48;;;;;;;3.37;3.07;;;8.10;99.90;;;8.49;100.00;98935.72;10388107;28;20241;-61
2024/01/26 06:30:52;;;;;;;3.50;3.30;;;8.00;99.90;;;8.46;100.00;98942.22;10392041;28;20230;-64
2024/01/26 06:35:56;;;;;;;3.80;3.47;;;7.90;99.90;;;8.50;100.00;98945.16;10389635;28;20312;-63
2024/01/26 06:41:00;;;;;;;3.23;3.03;;;7.90;99.90;;;8.54;100.00;98949.72;10391410;28;20621;-60
2024/01/26 06:46:05;;;;;;;3.60;3.30;;;7.90;99.90;;;8.43;100.00;98940.31;10383266;28;20312;-63
2024/01/26 06:51:08;;;;;;;4.50;4.10;;;7.90;99.90;;;8.45;100.00;98943.88;10388916;28;20292;-63
2024/01/26 06:56:12;;;;;;;3.30;3.00;;;7.80;99.90;;;8.40;100.00;98934.97;10386865;28;20240;-61
2024/01/26 07:01:16;;;;;;;2.53;2.33;;;7.80;99.90;;;8.49;100.00;98939.91;10395384;28;20232;-62
2024/01/26 07:06:20;;;;;;;2.50;2.30;;;7.90;99.90;;;8.57;100.00;98939.78;10392677;28;20364;-62
2024/01/26 07:11:25;;;;;;;3.80;2.37;;;8.00;99.90;;;8.67;100.00;98930.34;10376923;28;20261;-61
2024/01/26 07:16:30;;;;;;;2.40;2.30;;;8.10;99.90;;;8.67;100.00;98930.34;10379866;28;20562;-61
2024/01/26 07:21:33;;;;;;;2.50;2.40;;;8.10;99.90;;;8.72;100.00;98924.84;10367310;28;20246;-60
2024/01/26 07:26:37;;;;;;;2.13;2.00;;;8.20;99.90;;;8.79;100.00;98916.06;10348580;28;22161;-61
2024/01/26 07:31:43;;;;;;;2.67;2.43;;;8.30;99.90;;;8.87;100.00;98915.03;10348137;28;20654;-62
2024/01/26 07:36:46;;;;;;;2.57;2.37;;;8.30;99.90;;;9.00;100.00;98901.59;10344126;28;20226;-61
2024/01/26 07:41:49;;;;;;;2.10;2.00;;;8.40;99.90;;;9.17;100.00;98902.94;10349324;28;20234;-62
2024/01/26 07:46:54;;;;;;;1.92;1.83;;;8.60;99.90;;;9.14;100.00;98905.25;10345316;28;20226;-62
2024/01/26 07:51:57;;;;;;;2.67;2.15;;;8.70;99.90;;;9.27;100.00;98905.47;10343788;28;20234;-61
2024/01/26 07:57:00;;;;;;;2.17;2.08;;;8.70;99.90;;;9.29;100.00;98893.69;10346027;28;20241;-62
2024/01/26 08:02:05;;;;;;;2.30;2.20;;;8.80;99.90;;;9.36;100.00;98906.19;10343172;28;20230;-62
2024/01/26 08:07:08;;;;;;;2.38;2.13;;;8.80;99.90;;;9.50;100.00;98916.56;10343899;28;20317;-59
2024/01/26 08:12:13;;;;;;;2.13;2.03;;;9.00;99.90;;;9.70;100.00;98899.47;10345955;28;20694;-64
2024/01/26 08:17:37;;;;;;;2.17;1.98;;;9.20;99.90;;;9.82;100.00;98881.66;10346081;28;20225;-63
2024/01/26 08:22:42;;;;;;;3.17;2.22;;;9.30;99.90;;;10.08;100.00;98875.97;10345061;28;20948;-63
2024/01/26 08:27:46;;;;;;;2.33;2.13;;;9.50;99.90;;;10.22;99.32;98874.44;10346983;28;20321;-62
2024/01/26 08:32:51;;;;;;;1.70;1.60;;;9.70;99.90;;;10.76;94.88;98870.78;10342440;28;20242;-63
2024/01/26 08:37:54;;;;;;;3.15;2.00;;;10.20;99.90;;;11.11;92.52;98872.41;10343472;28;20314;-63
2024/01/26 08:42:57;;;;;;;3.13;1.75;;;10.40;99.90;;;11.12;91.30;98871.63;10343146;28;20225;-63
2024/01/26 08:48:02;;;;;;;2.15;1.92;;;10.60;99.90;;;11.10;90.80;98873.16;10341535;28;21214;-63
2024/01/26 08:53:06;;;;;;;2.75;1.70;;;10.80;99.90;;;11.23;91.01;98875.84;10357980;28;20306;-64
2024/01/26 08:58:10;;;;;;;1.90;1.80;;;10.70;99.90;;;11.21;90.45;98864.59;10348236;28;20709;-63
2024/01/26 09:03:15;;;;;;;1.88;1.80;;;10.70;99.90;;;11.34;88.82;98851.88;10356014;28;20237;-63
2024/01/26 09:08:18;;;;;;;2.10;2.00;;;11.00;99.90;;;11.48;88.43;98848.63;10348577;28;20234;-63
2024/01/26 09:13:21;;;;;;;1.90;1.80;;;10.90;99.90;;;11.53;88.37;98825.00;10351858;28;20225;-63
2024/01/26 09:18:26;;;;;;;1.92;1.83;;;11.00;99.90;;;11.64;87.03;98826.63;10371119;22;20686;-61
2024/01/26 09:23:45;;;;;;;2.05;1.95;;;11.10;99.90;;;11.75;86.50;98817.13;10333019;28;20252;-61
2024/01/26 09:28:48;;;;;;;2.03;1.92;;;11.20;99.90;;;11.79;86.68;98814.88;10319693;28;20235;-61
2024/01/26 09:33:53;;;;;;;1.95;1.88;;;11.30;99.90;;;11.86;86.55;98805.94;10289102;28;20226;-62
2024/01/26 09:38:56;;;;;;;1.77;1.67;;;11.20;99.90;;;11.84;85.74;98798.13;10314775;28;20985;-61
2024/01/26 09:44:00;;;;;;;2.30;2.10;;;11.40;99.90;;;11.82;86.52;98798.81;10313014;28;20560;-62
2024/01/26 09:49:08;;;;;;;2.25;2.15;;;11.20;99.90;;;11.80;87.96;98805.50;10312985;28;20589;-62
2024/01/26 09:54:13;;;;;;;2.15;1.80;;;11.20;99.90;;;12.01;86.24;98806.97;10313799;28;20483;-62
2024/01/26 09:59:17;;;;;;;1.65;1.55;;;11.40;99.90;;;12.06;85.59;98814.97;10314376;28;20266;-62
2024/01/26 10:04:21;;;;;;;2.30;1.83;;;11.30;99.90;;;12.22;86.74;98804.03;10313081;28;20698;-62
2024/01/26 10:09:27;;;;;;;1.95;1.85;;;11.40;99.90;;;12.35;85.28;98806.63;10313003;28;20241;-62
2024/01/26 10:14:30;;;;;;;2.20;2.00;;;11.50;99.90;;;12.29;85.24;98801.09;10310800;28;20309;-62
2024/01/26 10:19:35;;;;;;;2.38;1.70;;;11.40;99.90;;;12.23;85.23;98804.16;10313262;28;20226;-62
2024/01/26 10:24:38;;;;;;;1.70;1.60;;;11.40;99.90;;;12.28;86.15;98809.59;10310060;28;20229;-62
2024/01/26 10:29:44;;;;;;;2.05;1.95;;;11.50;99.90;;;12.25;88.18;98806.84;10316099;28;20374;-62
2024/01/26 10:34:51;;;;;;;2.15;2.05;;;11.50;99.90;;;12.20;87.88;98803.06;10312178;28;20761;-62
2024/01/26 10:39:55;;;;;;;2.33;2.10;;;11.50;99.90;;;12.11;89.49;98805.94;10312565;28;20238;-62
2024/01/26 10:45:01;;;;;;;2.33;2.22;;;11.40;99.90;;;12.09;88.97;98795.56;10310556;28;20230;-62
2024/01/26 10:50:11;;;;;;;2.40;2.20;;;11.40;99.90;;;12.01;90.08;98801.84;10311805;28;20577;-62
2024/01/26 10:55:15;;;;;;;2.38;2.20;;;11.30;99.90;;;12.01;89.66;98791.59;10310190;28;20309;-62
2024/01/26 11:00:20;;;;;;;2.38;2.17;;;11.20;99.90;;;11.84;90.42;98784.44;10313080;28;20234;-62
2024/01/26 11:05:25;;;;;;;2.53;2.33;;;11.10;99.90;;;11.75;91.07;98773.56;10316530;28;20267;-62
2024/01/26 11:10:30;;;;;;;2.17;2.08;;;11.00;99.90;;;11.77;90.00;98774.56;10310902;28;20223;-62
2024/01/26 11:15:36;;;;;;;2.10;2.00;;;11.00;99.90;;;11.67;90.89;98767.91;10312097;28;20231;-61
2024/01/26 11:20:42;;;;;;;2.38;2.28;;;10.90;99.90;;;11.79;89.66;98757.59;10315227;28;20302;-61
2024/01/26 11:25:49;;;;;;;2.25;2.15;;;10.90;99.90;;;11.68;90.11;98742.44;10300242;28;20239;-62
2024/01/26 11:30:57;;;;;;;2.53;2.35;;;10.90;99.90;;;11.80;89.20;98733.78;10309840;28;20298;-62
2024/01/26 11:36:06;;;;;;;2.72;2.50;;;11.00;99.90;;;11.80;89.07;98728.66;10315455;28;20231;-62
2024/01/26 11:41:11;;;;;;;2.60;2.40;;;11.00;99.90;;;11.66;90.95;98723.50;10308802;28;20301;-62
2024/01/26 11:46:15;;;;;;;2.90;2.70;;;10.90;99.90;;;11.73;91.65;98712.91;10293058;28;20241;-61
2024/01/26 11:51:19;;;;;;;3.28;2.80;;;11.00;99.90;;;11.45;94.95;98722.09;10271102;28;20232;-61
2024/01/26 11:56:23;;;;;;;3.63;2.75;;;10.80;99.90;;;11.15;98.60;98719.19;10271141;28;20290;-61
2024/01/26 12:01:26;;;;;;;3.53;2.40;;;10.50;99.90;;;11.01;100.00;98723.34;10310172;28;20223;-61
2024/01/26 12:06:31;;;;;;;2.60;2.40;;;10.40;99.90;;;10.94;100.00;98725.41;10309475;28;20309;-61
2024/01/26 12:11:35;;;;;;;3.38;2.60;;;10.30;99.90;;;10.76;100.00;98725.91;10309071;28;20223;-60
2024/01/26 12:16:40;;;;;;;2.88;2.40;;;10.30;99.90;;;10.64;100.00;98726.69;10311255;28;20237;-62
2024/01/26 12:21:47;;;;;;;2.92;2.63;;;10.20;99.90;;;10.56;100.00;98719.38;10310128;28;20219;-62
2024/01/26 12:26:51;;;;;;;4.25;3.78;;;10.10;99.90;;;10.59;100.00;98711.06;10311375;28;20227;-62
2024/01/26 12:32:03;;;;;;;4.07;3.45;;;10.10;99.90;;;10.54;100.00;98704.72;10308551;28;20231;-62
2024/01/26 12:37:11;;;;;;;3.67;3.22;;;10.00;99.90;;;10.57;100.00;98693.03;10309457;28;20694;-62
2024/01/26 12:42:14;;;;;;;5.13;3.70;;;10.00;99.90;;;10.57;100.00;98681.94;10307977;28;20219;-62
2024/01/26 12:47:17;;;;;;;4.05;3.40;;;10.00;99.90;;;10.53;100.00;98687.59;10308753;28;20242;-61
2024/01/26 12:52:22;;;;;;;5.15;3.53;;;10.00;99.90;;;10.59;100.00;98688.03;10307404;28;20226;-61
2024/01/26 12:57:25;;;;;;;4.38;3.30;;;10.10;99.90;;;10.60;100.00;98693.25;10306592;28;20242;-62
2024/01/26 13:02:28;;;;;;;3.70;3.40;;;10.00;99.90;;;10.66;100.00;98684.22;10309505;28;20227;-62
2024/01/26 13:07:32;;;;;;;3.28;3.08;;;10.10;99.90;;;10.71;100.00;98678.66;10307763;28;20617;-62
2024/01/26 13:12:36;;;;;;;3.50;3.20;;;10.10;99.90;;;10.72;100.00;98674.44;10309750;28;20234;-62
2024/01/26 13:17:39;;;;;;;3.38;3.13;;;10.20;99.90;;;10.63;100.00;98678.91;10310631;28;20604;-59
2024/01/26 13:22:44;;;;;;;3.40;3.20;;;10.10;99.90;;;10.71;100.00;98677.78;10311385;28;20238;-60
2024/01/26 13:27:47;;;;;;;3.45;3.25;;;10.20;99.90;;;10.56;100.00;98687.81;10311564;28;20226;-60
2024/01/26 13:32:50;;;;;;;3.45;3.15;;;10.10;99.90;;;10.45;100.00;98684.50;10310613;28;20293;-61
2024/01/26 13:37:55;;;;;;;3.67;3.38;;;10.00;99.90;;;10.33;100.00;98679.41;10313301;28;20235;-61
2024/01/26 13:43:00;;;;;;;4.20;3.80;;;10.00;99.90;;;10.44;100.00;98676.72;10311277;28;20233;-60
2024/01/26 13:48:05;;;;;;;4.22;3.83;;;10.00;99.90;;;10.33;100.00;98673.41;10316434;28;20227;-62
2024/01/26 13:53:17;;;;;;;4.30;3.90;;;9.90;99.90;;;10.52;100.00;98670.47;10315999;28;20242;-62
2024/01/26 13:58:20;;;;;;;5.18;4.72;;;10.00;99.90;;;10.50;100.00;98685.72;10315023;28;20231;-61
2024/01/26 14:03:24;;;;;;;4.55;4.15;;;10.00;99.90;;;10.28;100.00;98680.75;10320405;28;20235;-62
2024/01/26 14:08:29;;;;;;;4.28;3.97;;;9.90;99.90;;;10.32;100.00;98692.94;10317723;28;20227;-62
2024/01/26 14:13:32;;;;;;;4.28;3.88;;;9.80;99.90;;;10.41;100.00;98691.84;10303301;28;20250;-62
2024/01/26 14:18:37;;;;;;;3.30;3.10;;;9.90;99.90;;;10.43;100.00;98697.94;10319278;28;20229;-61
2024/01/26 14:23:42;;;;;;;5.85;5.28;;;9.80;99.90;;;10.29;100.00;98708.06;10317617;28;20737;-61
2024/01/26 14:28:46;;;;;;;86.05;48.88;;;9.80;99.90;;;10.34;100.00;98708.41;10315532;28;20278;-62
2024/01/26 14:33:50;;;;;;;9.68;8.68;;;9.80;99.90;;;10.36;100.00;98707.75;10313273;28;20663;-62
2024/01/26 14:38:54;;;;;;;19.20;15.27;;;9.80;99.90;;;10.37;100.00;98708.63;10309314;28;20227;-62
2024/01/26 14:43:57;;;;;;;15.43;13.43;;;9.80;99.90;;;10.47;100.00;98722.94;10308734;28;20584;-62
2024/01/26 14:49:01;;;;;;;9.80;8.98;;;9.90;99.90;;;10.33;100.00;98724.50;10308151;28;20227;-62
2024/01/26 14:54:05;;;;;;;11.82;10.73;;;9.80;99.90;;;10.21;100.00;98728.69;10307989;28;20314;-62
2024/01/26 14:59:09;;;;;;;10.63;9.55;;;9.70;99.90;;;10.32;100.00;98732.94;10308161;28;20816;-61
2024/01/26 15:04:12;;;;;;;7.90;7.10;;;9.70;99.90;;;10.31;100.00;98744.84;10309157;28;20241;-62
2024/01/26 15:09:17;;;;;;;4.18;3.88;;;9.80;99.90;;;10.44;100.00;98745.72;10309549;28;20234;-62
2024/01/26 15:14:20;;;;;;;5.55;5.05;;;9.80;99.90;;;10.29;100.00;98750.63;10309389;28;20238;-62
2024/01/26 15:19:23;;;;;;;4.35;4.03;;;9.80;99.90;;;10.24;100.00;98745.13;10307370;28;20320;-61
2024/01/26 15:24:30;;;;;;;3.42;3.22;;;9.80;99.90;;;10.31;100.00;98766.97;10306680;28;20924;-62
2024/01/26 15:29:33;;;;;;;3.40;3.20;;;9.80;99.90;;;10.37;100.00;98762.28;10308002;28;20238;-62
2024/01/26 15:34:36;;;;;;;2.63;2.42;;;9.70;99.90;;;10.37;100.00;98768.28;10307480;28;20226;-62
2024/01/26 15:39:41;;;;;;;4.72;3.67;;;9.80;99.90;;;10.46;100.00;98772.28;10309048;28;20811;-62
2024/01/26 15:44:44;;;;;;;3.50;3.20;;;9.90;99.90;;;10.36;100.00;98791.19;10313455;28;20267;-62
2024/01/26 15:49:47;;;;;;;8.57;7.40;;;9.80;99.90;;;10.29;100.00;98787.28;10310646;28;20793;-62
2024/01/26 15:54:52;;;;;;;4.25;3.90;;;9.80;99.90;;;10.37;100.00;98793.84;10308849;28;20677;-62
2024/01/26 15:59:55;;;;;;;4.28;3.80;;;9.80;99.90;;;10.32;100.00;98800.28;10310663;28;20238;-62
2024/01/26 16:04:59;;;;;;;4.43;4.03;;;9.70;99.90;;;10.29;100.00;98825.59;10309303;28;20273;-62
2024/01/26 16:10:04;;;;;;;6.68;5.97;;;9.70;99.90;;;10.33;100.00;98842.97;10309746;28;20233;-65
2024/01/26 16:15:09;;;;;;;3.70;3.40;;;9.70;99.90;;;10.24;100.00;98870.31;10310416;28;20249;-62
2024/01/26 16:20:13;;;;;;;3.42;3.22;;;9.80;99.90;;;10.11;100.00;98885.53;10307283;28;20350;-62
2024/01/26 16:25:18;;;;;;;4.03;3.72;;;9.70;99.90;;;10.12;100.00;98903.50;10302817;28;20715;-62
2024/01/26 16:30:21;;;;;;;3.40;3.10;;;9.60;99.90;;;10.18;100.00;98909.88;10307619;28;20230;-62
2024/01/26 16:35:24;;;;;;;2.83;2.55;;;9.60;99.90;;;10.21;100.00;98918.63;10271995;28;20913;-62
2024/01/26 16:40:28;;;;;;;2.65;2.55;;;9.70;99.90;;;10.01;100.00;98944.34;10271336;28;20231;-62
2024/01/26 16:45:32;;;;;;;2.30;2.20;;;9.60;99.90;;;9.84;100.00;98959.28;10276486;28;20232;-62
2024/01/26 16:50:35;;;;;;;2.30;2.20;;;9.40;99.90;;;9.87;100.00;98967.16;10275305;28;20220;-62
2024/01/26 16:55:39;;;;;;;2.70;2.60;;;9.40;99.90;;;9.88;100.00;98978.28;10259545;28;20471;-62
2024/01/26 17:00:43;;;;;;;4.13;3.80;;;9.40;99.90;;;9.88;100.00;98989.38;10270599;28;20228;-62
2024/01/26 17:05:50;;;;;;;3.10;2.90;;;9.40;99.90;;;9.81;100.00;98996.41;10292560;28;20239;-62
2024/01/26 17:10:55;;;;;;;2.50;2.30;;;9.40;99.90;;;9.80;100.00;99010.84;10357839;22;20221;-63
2024/01/26 17:15:59;;;;;;;2.60;2.40;;;9.30;99.90;;;9.81;100.00;99043.28;10359080;28;20234;-61
2024/01/26 17:21:02;;;;;;;2.83;2.60;;;9.30;99.90;;;9.66;100.00;99049.72;10356633;28;20517;-63
2024/01/26 17:26:06;;;;;;;2.75;2.55;;;9.20;99.90;;;9.56;100.00;99062.53;10358938;28;20364;-61
2024/01/26 17:31:10;;;;;;;3.35;3.00;;;9.10;99.90;;;9.47;100.00;99086.53;10364224;28;20320;-61
2024/01/26 17:36:15;;;;;;;3.15;2.95;;;9.00;99.90;;;9.22;100.00;99104.06;10358678;28;20234;-60
2024/01/26 17:41:20;;;;;;;3.35;2.95;;;8.80;99.90;;;9.18;100.00;99131.72;10323047;28;20234;-63
2024/01/26 17:46:23;;;;;;;3.47;3.08;;;8.70;99.90;;;9.06;100.00;99151.13;10315796;28;20229;-60
2024/01/26 17:51:26;;;;;;;4.93;4.32;;;8.60;99.90;;;8.87;100.00;99149.59;10313155;28;20230;-60
2024/01/26 17:56:31;;;;;;;4.82;4.10;;;8.40;99.90;;;8.69;100.00;99168.41;10308183;28;20325;-59
2024/01/26 18:01:34;;;;;;;6.53;5.87;;;8.20;99.90;;;8.54;100.00;99186.69;10317208;28;20250;-61
2024/01/26 18:06:38;;;;;;;6.27;5.00;;;8.10;99.90;;;8.40;100.00;99211.75;10325320;28;20241;-60
2024/01/26 18:11:43;;;;;;;6.87;5.33;;;7.90;99.90;;;8.28;100.00;99220.06;10327900;28;20618;-61
2024/01/26 18:16:46;;;;;;;4.40;3.97;;;7.80;99.90;;;8.18;100.00;99224.22;10327509;28;20227;-62
2024/01/26 18:21:49;;;;;;;5.40;4.90;;;7.70;99.90;;;8.05;100.00;99238.41;10326979;28;20276;-62
2024/01/26 18:26:54;;;;;;;7.03;5.90;;;7.50;99.90;;;8.00;100.00;99252.38;10330061;28;20525;-63
2024/01/26 18:31:57;;;;;;;5.43;4.93;;;7.40;99.90;;;7.84;100.00;99259.38;10333030;28;20238;-60
2024/01/26 18:37:00;;;;;;;4.47;4.07;;;7.30;99.90;;;7.72;100.00;99276.09;10328876;28;20227;-62
2024/01/26 18:42:06;;;;;;;4.03;3.73;;;7.10;99.90;;;7.58;100.00;99280.84;10337130;28;20647;-63
2024/01/26 18:47:09;;;;;;;6.07;4.03;;;7.00;99.90;;;7.47;100.00;99312.03;10353937;28;20230;-63
2024/01/26 18:52:13;;;;;;;4.33;3.20;;;6.80;99.90;;;7.24;100.00;99312.44;10346781;28;20780;-62
2024/01/26 18:57:18;;;;;;;5.03;4.03;;;6.60;99.90;;;7.04;100.00;99333.47;10350577;28;20254;-60
2024/01/26 19:02:21;;;;;;;4.43;4.03;;;6.40;99.90;;;6.90;100.00;99349.06;10336285;28;20593;-60
2024/01/26 19:07:25;;;;;;;4.47;4.07;;;6.30;99.90;;;6.73;100.00;99348.31;10344532;28;20227;-60
2024/01/26 19:12:29;;;;;;;6.30;5.70;;;6.10;99.90;;;6.56;100.00;99360.16;10345946;28;20361;-60
2024/01/26 19:17:33;;;;;;;8.67;7.87;;;6.00;99.90;;;6.43;100.00;99368.22;10340189;28;20783;-63
2024/01/26 19:22:36;;;;;;;6.50;5.90;;;5.80;99.90;;;6.17;100.00;99384.34;10349011;28;20315;-62
2024/01/26 19:27:41;;;;;;;6.07;5.50;;;5.60;99.90;;;6.01;100.00;99393.69;10344136;28;21035;-61
2024/01/26 19:32:45;;;;;;;7.00;5.73;;;5.40;99.90;;;5.91;100.00;99398.59;10344043;28;20226;-62
2024/01/26 19:37:48;;;;;;;8.07;7.23;;;5.30;99.90;;;5.79;100.00;99416.03;10344559;28;20616;-62
2024/01/26 19:42:53;;;;;;;8.30;7.03;;;5.20;99.90;;;5.62;100.00;99415.22;10336432;28;20227;-60
2024/01/26 19:47:56;;;;;;;6.70;6.20;;;5.10;99.90;;;5.46;100.00;99427.06;10342200;28;20227;-61
2024/01/26 19:53:00;;;;;;;10.10;9.10;;;4.90;99.90;;;5.40;100.00;99427.34;10343045;28;20227;-61
2024/01/26 19:58:05;;;;;;;26.37;20.63;;;4.90;99.90;;;5.37;100.00;99432.09;10344456;28;20222;-63
2024/01/26 20:03:11;;;;;;;33.60;26.53;;;4.80;99.90;;;5.25;100.00;99451.13;10348755;28;20230;-62
2024/01/26 20:08:14;;;;;;;19.67;17.80;;;4.70;99.90;;;5.10;100.00;99465.66;10345944;28;20777;-61
2024/01/26 20:13:20;;;;;;;13.80;12.60;;;4.50;99.90;;;5.11;100.00;99484.28;10341003;28;20232;-62
2024/01/26 20:18:23;;;;;;;12.53;11.43;;;4.50;99.90;;;5.01;100.00;99478.97;10344353;28;20710;-62
2024/01/26 20:23:29;;;;;;;15.97;14.30;;;4.40;99.90;;;4.84;100.00;99493.31;10348255;28;20351;-62
2024/01/26 20:28:36;;;;;;;16.03;14.33;;;4.30;99.90;;;4.71;100.00;99505.41;10344355;28;20610;-58
2024/01/26 20:33:43;;;;;;;10.47;9.30;;;4.20;99.90;;;4.56;100.00;99516.44;10340748;28;20240;-62
2024/01/26 20:38:49;;;;;;;10.13;8.57;;;4.00;99.90;;;4.53;100.00;99511.06;10336701;28;20237;-62
2024/01/26 20:43:54;;;;;;;15.83;13.23;;;4.00;99.90;;;4.33;100.00;99519.94;10342985;28;20238;-61
2024/01/26 20:48:58;;;;;;;15.00;11.20;;;3.80;99.90;;;4.32;100.00;99520.69;10343344;28;20744;-61
2024/01/26 20:54:02;;;;;;;15.67;13.43;;;3.70;99.90;;;4.20;100.00;99516.81;10336384;28;20682;-61
2024/01/26 20:59:06;;;;;;;24.53;18.23;;;3.70;99.90;;;4.20;100.00;99517.69;10373688;28;20764;-62
2024/01/26 21:04:09;;;;;;;10.57;9.47;;;3.60;99.90;;;4.17;100.00;99540.13;10351861;28;20705;-61
2024/01/26 21:09:13;;;;;;;11.67;10.47;;;3.60;99.90;;;4.13;100.00;99547.25;10360078;28;20258;-61